17CO weather

Skylane Ranch Airport
Berthoud, Colorado, United States

Public forecast

Using degrees Fahrenheit for public forecast. Weather courtesy of forecast.io.

METAR (pilot weather report)

Closest report is Vance Brand Airport, 8.8 nm (16.4 km) SW. Retrieved 2019/08/18 06:35 UTC (8 minutes ago):

KLMO 180635Z AUTO 26005KT 10SM CLR 19/04 A2997 RMK AO2 T01900039

TAF (pilot weather forecast)

Closest forecast is Rocky Mountain Metropolitan Airport, 22.2 nm (41.0 km) S. Retrieved 2019/08/18 06:46 UTC (0 seconds ago):

TAF KBJC 180543Z 1806/1906 26008KT P6SM SCT150 FM181100 35008KT P6SM SCT020 TEMPO 1811/1815 2SM BR BKN020 FM181700 11008KT P6SM FEW090 FEW250